»·PEaware :: ASA552 KPDX-KSAN

ASA552 :: KPDX-KSAN

FLIGHT INFORMATION

Flight Status: Arrived
Operator:
Alaska Airlines
More flights by this operator :: More flights under this callsign
Pilot: Rob S. (2755)
Aircraft: AIRBUS A320
(A320)
More flights by this aircraft type
Origin: KPDX Portland Intl
United States
Destination: KSAN San Diego Intl-Lindbergh
United States
More flights between these airports :: More routes between these airports
Route: CASCD2 PAWLI Q11 PASKE HUULK COMIX2
File this flight plan on PilotEdge
Remarks:
Altitude:
(Current/Filed)
35,000ft
Speed:
(Current/Filed)
441kts
Departed: 11-Feb-19 11:24 AM
Arrived: 11-Feb-19 01:23 PM
Distance/Time
Traveled:
811nm/1:59
Distance/Time
To Go:
Arrived

Flight Plot

Page will automatically refresh every two minutes.

Flight plan parsing failed; only flown route is shown


Map Options




Map Legend


Flown Route
Filed Route
Departure Airport
Arrival Airport
Navaid (VOR, NDB)
Fix

Horizontal Profiles

Position Reports

Time Latitude Longitude Heading Altitude Ground
Speed
11-Feb-19 10:51 45.587772 -122.594824 56 44ft 0kts
11-Feb-19 10:52 45.587772 -122.594824 56 44ft 0kts
11-Feb-19 10:53 45.587772 -122.594824 56 44ft 0kts
11-Feb-19 10:54 45.587772 -122.594824 56 44ft 0kts
11-Feb-19 10:56 45.587772 -122.594824 56 44ft 0kts
11-Feb-19 10:57 45.587772 -122.594824 56 44ft 0kts
11-Feb-19 10:58 45.587772 -122.594824 56 44ft 0kts
11-Feb-19 10:59 45.587772 -122.594824 56 44ft 0kts
11-Feb-19 11:00 45.587772 -122.594824 56 44ft 0kts
11-Feb-19 11:01 45.587772 -122.594824 56 44ft 0kts
11-Feb-19 11:02 45.587772 -122.594824 56 44ft 0kts
11-Feb-19 11:03 45.587772 -122.594824 56 44ft 0kts
11-Feb-19 11:04 45.587772 -122.594824 56 44ft 0kts
11-Feb-19 11:05 45.587772 -122.594824 56 44ft 0kts
11-Feb-19 11:06 45.587772 -122.594824 56 44ft 0kts
11-Feb-19 11:07 45.587772 -122.594824 56 44ft 0kts
11-Feb-19 11:08 45.587772 -122.594824 56 44ft 0kts
11-Feb-19 11:09 45.587772 -122.594824 56 44ft 0kts
11-Feb-19 11:10 45.587772 -122.594824 56 44ft 0kts
11-Feb-19 11:11 45.587772 -122.594824 56 44ft 0kts
11-Feb-19 11:12 45.587377 -122.595345 16 44ft 2kts
11-Feb-19 11:13 45.586982 -122.595131 299 44ft 0kts
11-Feb-19 11:13 45.586982 -122.595132 299 44ft 0kts
11-Feb-19 11:15 45.586983 -122.595132 299 44ft 0kts
11-Feb-19 11:16 45.586983 -122.595133 299 44ft 0kts
11-Feb-19 11:16 45.586983 -122.595133 299 44ft 0kts
11-Feb-19 11:17 45.587335 -122.596030 297 44ft 9kts
11-Feb-19 11:18 45.588149 -122.600269 298 44ft 15kts
11-Feb-19 11:20 45.591688 -122.607727 298 44ft 24kts
11-Feb-19 11:20 45.594797 -122.615718 297 44ft 29kts
11-Feb-19 11:21 45.595995 -122.620630 211 44ft 0kts
11-Feb-19 11:22 45.594797 -122.620552 118 44ft 8kts
11-Feb-19 11:23 45.580092 -122.581105 113 1035ft 164kts
11-Feb-19 11:24 45.571797 -122.508729 100 2861ft 216kts
11-Feb-19 11:25 45.556741 -122.414083 109 5050ft 262kts
11-Feb-19 11:26 45.530971 -122.314548 147 7003ft 265kts
11-Feb-19 11:27 45.467310 -122.269573 174 7013ft 250kts
11-Feb-19 11:28 45.398930 -122.250322 175 8168ft 255kts
11-Feb-19 11:29 45.327825 -122.229677 177 10707ft 276kts
11-Feb-19 11:30 45.242876 -122.205196 175 11879ft 339kts
11-Feb-19 11:31 45.148820 -122.177666 176 14152ft 353kts
11-Feb-19 11:32 45.050682 -122.145347 165 15017ft 373kts
11-Feb-19 11:33 44.956371 -122.081982 162 15016ft 377kts
11-Feb-19 11:34 44.861463 -122.018725 162 15030ft 377kts
11-Feb-19 11:35 44.764760 -121.954336 162 16722ft 392kts
11-Feb-19 11:36 44.664162 -121.887564 162 18450ft 407kts
11-Feb-19 11:37 44.559871 -121.818706 162 20059ft 421kts
11-Feb-19 11:38 44.452327 -121.747875 162 21557ft 434kts
11-Feb-19 11:39 44.341191 -121.674932 162 22928ft 446kts
11-Feb-19 11:40 44.227454 -121.600740 163 24194ft 457kts
11-Feb-19 11:41 44.111104 -121.525104 163 25429ft 465kts
11-Feb-19 11:42 43.992879 -121.448599 163 26610ft 472kts
11-Feb-19 11:43 43.872685 -121.371253 163 27665ft 480kts
11-Feb-19 11:44 43.750604 -121.292863 163 28667ft 486kts
11-Feb-19 11:45 43.627422 -121.214261 163 29592ft 492kts
11-Feb-19 11:46 43.502874 -121.134979 162 30785ft 489kts
11-Feb-19 11:47 43.379613 -121.057029 162 31900ft 487kts
11-Feb-19 11:48 43.256732 -120.979493 162 32970ft 484kts
11-Feb-19 11:49 43.132003 -120.917597 177 33916ft 466kts
11-Feb-19 11:50 43.004876 -120.888441 177 34699ft 464kts
11-Feb-19 11:51 42.877820 -120.856730 177 34993ft 462kts
11-Feb-19 11:52 42.751136 -120.826259 177 35004ft 462kts
11-Feb-19 11:53 42.624542 -120.795769 177 35003ft 462kts
11-Feb-19 11:54 42.497635 -120.765275 177 35011ft 462kts
11-Feb-19 11:55 42.370739 -120.734958 177 35051ft 462kts
11-Feb-19 11:56 42.243986 -120.704782 177 35077ft 462kts
11-Feb-19 11:57 42.117219 -120.674720 177 35092ft 462kts
11-Feb-19 11:58 41.990574 -120.644812 177 35096ft 463kts
11-Feb-19 11:59 41.863405 -120.614911 177 35071ft 464kts
11-Feb-19 12:00 41.736262 -120.585117 177 35109ft 464kts
11-Feb-19 12:01 41.609175 -120.555469 177 35134ft 464kts
11-Feb-19 12:02 41.481780 -120.525874 177 35144ft 464kts
11-Feb-19 12:03 41.354748 -120.496476 177 35146ft 464kts
11-Feb-19 12:04 41.227346 -120.467099 177 35147ft 464kts
11-Feb-19 12:05 41.099925 -120.437838 177 35145ft 464kts
11-Feb-19 12:06 40.972643 -120.406433 173 35111ft 468kts
11-Feb-19 12:07 40.845739 -120.366564 173 35117ft 468kts
11-Feb-19 12:08 40.718399 -120.327359 173 35101ft 470kts
11-Feb-19 12:09 40.590844 -120.288011 173 35188ft 470kts
11-Feb-19 12:10 40.463193 -120.248812 173 35198ft 472kts
11-Feb-19 12:11 40.335055 -120.209622 173 35201ft 473kts
11-Feb-19 12:12 40.207004 -120.170611 173 35206ft 473kts
11-Feb-19 12:13 40.078972 -120.131746 173 35208ft 472kts
11-Feb-19 12:14 39.950995 -120.093085 173 35187ft 472kts
11-Feb-19 12:15 39.822817 -120.054478 173 35166ft 472kts
11-Feb-19 12:16 39.695012 -120.016138 173 35176ft 471kts
11-Feb-19 12:17 39.567148 -119.977939 173 35178ft 471kts
11-Feb-19 12:18 39.439009 -119.939803 173 35170ft 472kts
11-Feb-19 12:19 39.310820 -119.901793 173 35198ft 475kts
11-Feb-19 12:20 39.181713 -119.863610 173 35181ft 475kts
11-Feb-19 12:21 39.053316 -119.825834 174 35150ft 470kts
11-Feb-19 12:22 38.925676 -119.788404 174 35090ft 471kts
11-Feb-19 12:23 38.797220 -119.750884 174 35095ft 477kts
11-Feb-19 12:24 38.667289 -119.713064 174 35205ft 479kts
11-Feb-19 12:25 38.537572 -119.675408 174 35223ft 476kts
11-Feb-19 12:26 38.409176 -119.638331 174 35194ft 472kts
11-Feb-19 12:27 38.280605 -119.601358 174 35156ft 473kts
11-Feb-19 12:28 38.151287 -119.564717 174 35184ft 478kts
11-Feb-19 12:29 38.021450 -119.527898 174 35236ft 478kts
11-Feb-19 12:30 37.892031 -119.491389 175 35262ft 474kts
11-Feb-19 12:31 37.763299 -119.455209 175 35191ft 473kts
11-Feb-19 12:32 37.634189 -119.419070 175 35156ft 477kts
11-Feb-19 12:33 37.504302 -119.382827 175 35243ft 479kts
11-Feb-19 12:34 37.374241 -119.346597 175 35268ft 477kts
11-Feb-19 12:35 37.245057 -119.310857 175 35252ft 474kts
11-Feb-19 12:36 37.116243 -119.275282 175 35242ft 476kts
11-Feb-19 12:37 36.986136 -119.239490 175 35306ft 479kts
11-Feb-19 12:38 36.855372 -119.203625 175 35365ft 480kts
11-Feb-19 12:39 36.726100 -119.168279 176 35372ft 478kts
11-Feb-19 12:40 36.595372 -119.132695 176 35290ft 478kts
11-Feb-19 12:41 36.465297 -119.097401 176 35321ft 479kts
11-Feb-19 12:42 36.335385 -119.062272 176 35375ft 479kts
11-Feb-19 12:43 36.204670 -119.027050 176 35391ft 480kts
11-Feb-19 12:44 36.074161 -118.991994 176 35392ft 480kts
11-Feb-19 12:45 35.943198 -118.957171 177 35391ft 479kts
11-Feb-19 12:46 35.813308 -118.922558 177 35321ft 479kts
11-Feb-19 12:47 35.682418 -118.887915 177 35281ft 481kts
11-Feb-19 12:48 35.551665 -118.853391 177 35362ft 482kts
11-Feb-19 12:49 35.420194 -118.818786 177 35356ft 482kts
11-Feb-19 12:50 35.289316 -118.784468 177 35326ft 481kts
11-Feb-19 12:51 35.158151 -118.750189 177 35301ft 481kts
11-Feb-19 12:52 35.027525 -118.716145 177 35236ft 481kts
11-Feb-19 12:53 34.896277 -118.682080 178 35188ft 484kts
11-Feb-19 12:54 34.764189 -118.647892 178 35272ft 484kts
11-Feb-19 12:55 34.632333 -118.613839 178 35278ft 483kts
11-Feb-19 12:56 34.506553 -118.544317 156 35257ft 511kts
11-Feb-19 12:57 34.384704 -118.456099 158 35225ft 508kts
11-Feb-19 12:58 34.262455 -118.369491 157 35222ft 510kts
11-Feb-19 13:00 34.139892 -118.282975 158 35286ft 511kts
11-Feb-19 13:01 34.017111 -118.196249 158 34623ft 509kts
11-Feb-19 13:02 33.894451 -118.110245 156 31927ft 511kts
11-Feb-19 13:03 33.771995 -118.027085 156 29196ft 495kts
11-Feb-19 13:04 33.654138 -117.949251 156 26473ft 475kts
11-Feb-19 13:05 33.542630 -117.875632 155 23957ft 447kts
11-Feb-19 13:06 33.437327 -117.801959 144 21586ft 433kts
11-Feb-19 13:07 33.348872 -117.707519 139 19370ft 420kts
11-Feb-19 13:08 33.263216 -117.616606 139 17257ft 405kts
11-Feb-19 13:09 33.180128 -117.528788 139 15231ft 391kts
11-Feb-19 13:10 33.096727 -117.449464 146 13246ft 375kts
11-Feb-19 13:11 33.013229 -117.380358 145 11618ft 347kts
11-Feb-19 13:12 32.941061 -117.319670 144 10447ft 294kts
11-Feb-19 13:13 32.876725 -117.266009 144 9001ft 275kts
11-Feb-19 13:14 32.816113 -117.214215 131 7542ft 260kts
11-Feb-19 13:15 32.794852 -117.134758 104 6224ft 253kts
11-Feb-19 13:16 32.776918 -117.055658 104 5968ft 239kts
11-Feb-19 13:16 32.761723 -116.994058 104 4954ft 237kts
11-Feb-19 13:18 32.709953 -116.957368 204 4010ft 212kts
11-Feb-19 13:19 32.690266 -117.014223 288 3119ft 198kts
11-Feb-19 13:20 32.706099 -117.076577 287 1935ft 185kts
11-Feb-19 13:20 32.716669 -117.119950 287 1188ft 144kts
11-Feb-19 13:22 32.728673 -117.169688 286 302ft 131kts
11-Feb-19 13:23 32.735272 -117.197221 261 29ft 16kts
11-Feb-19 13:23 32.735034 -117.198566 251 29ft 4kts
11-Feb-19 13:24 32.734315 -117.199613 194 29ft 4kts
11-Feb-19 13:25 32.733462 -117.199349 117 29ft 3kts
11-Feb-19 13:26 32.733381 -117.199158 116 29ft 0kts
11-Feb-19 13:27 32.733381 -117.199158 116 29ft 0kts

Navigation Log

Ident Type
Flight plan parsing failed, navigation log unavailable